Time;durP1;ratioP1;P1;durP2;ratioP2;P2;SDS_P1;SDS_P2;PMS_P1;PMS_P2;Temp;Humidity;BMP_temperature;BMP_pressure;BME280_temperature;BME280_humidity;BME280_pressure;Samples;Min_cycle;Max_cycle;Signal;HPM_P1;HPM_P2
2021/09/04 00:01:31;;;;;;;;;;;;;;;13.07;56.20;98265.13;3313829;29;19929;-75
2021/09/04 00:03:11;;;;;;;;;;;;;;;13.16;56.06;98262.81;3313595;29;19952;-75
2021/09/04 00:04:52;;;;;;;;;;;;;;;13.22;55.87;98271.75;3313647;29;20419;-75
2021/09/04 00:06:33;;;;;;;;;;;;;;;13.22;55.78;98266.41;3313842;29;19933;-76
2021/09/04 00:08:13;;;;;;;;;;;;;;;13.22;55.72;98267.19;3313631;29;19929;-76
2021/09/04 00:09:54;;;;;;;;;;;;;;;13.22;55.76;98269.88;3312860;29;19948;-76
2021/09/04 00:11:37;;;;;;;;;;;;;;;13.26;55.83;98268.34;3322722;29;19968;-76
2021/09/04 00:13:17;;;;;;;;;;;;;;;13.31;55.51;98279.09;3315831;29;19985;-77
2021/09/04 00:14:58;;;;;;;;;;;;;;;13.28;55.22;98278.81;3313733;29;20020;-77
2021/09/04 00:16:39;;;;;;;;;;;;;;;13.18;55.52;98281.31;3325170;29;19936;-76
2021/09/04 00:18:20;;;;;;;;;;;;;;;13.12;55.83;98282.31;3315973;29;19929;-76
2021/09/04 00:20:00;;;;;;;;;;;;;;;13.08;55.98;98290.78;3313560;29;20023;-76
2021/09/04 00:21:41;;;;;;;;;;;;;;;13.07;55.93;98291.88;3313339;29;20057;-76
2021/09/04 00:23:21;;;;;;;;;;;;;;;13.11;55.79;98302.88;3313519;29;20291;-76
2021/09/04 00:25:02;;;;;;;;;;;;;;;13.12;55.78;98301.03;3313337;29;20379;-76
2021/09/04 00:26:43;;;;;;;;;;;;;;;13.08;55.71;98301.50;3313694;29;19958;-75
2021/09/04 00:28:23;;;;;;;;;;;;;;;13.05;55.80;98301.19;3313575;29;20382;-76
2021/09/04 00:30:04;;;;;;;;;;;;;;;13.02;55.69;98304.34;3313444;29;19932;-75
2021/09/04 00:31:44;;;;;;;;;;;;;;;12.98;55.78;98297.88;3313286;29;19929;-77
2021/09/04 00:33:27;;;;;;;;;;;;;;;12.96;55.95;98299.97;3313443;29;19929;-76
2021/09/04 00:35:07;;;;;;;;;;;;;;;12.98;55.83;98297.88;3313259;29;19933;-76
2021/09/04 00:36:48;;;;;;;;;;;;;;;12.94;55.79;98300.22;3313689;29;20330;-76
2021/09/04 00:38:28;;;;;;;;;;;;;;;12.90;55.92;98300.94;3313398;29;19986;-77
2021/09/04 00:40:09;;;;;;;;;;;;;;;12.92;55.84;98304.19;3313295;29;19929;-76
2021/09/04 00:41:50;;;;;;;;;;;;;;;12.95;55.85;98312.53;3313331;29;19936;-76
2021/09/04 00:43:30;;;;;;;;;;;;;;;12.94;55.73;98316.28;3313335;29;19929;-76
2021/09/04 00:45:11;;;;;;;;;;;;;;;12.90;55.68;98312.44;3313290;29;19933;-76
2021/09/04 00:46:59;;;;;;;;;;;;;;;12.83;55.76;98304.59;3313332;29;19929;-76
2021/09/04 00:48:40;;;;;;;;;;;;;;;12.82;55.75;98308.31;3313030;29;20393;-76
2021/09/04 00:50:21;;;;;;;;;;;;;;;12.80;55.69;98313.13;3324857;29;19929;-76
2021/09/04 00:52:01;;;;;;;;;;;;;;;12.76;55.84;98317.31;3315545;29;20364;-76
2021/09/04 00:53:42;;;;;;;;;;;;;;;12.76;55.86;98325.34;3313366;29;19929;-76
2021/09/04 00:55:23;;;;;;;;;;;;;;;12.74;55.89;98308.72;3313238;29;20462;-75
2021/09/04 00:57:04;;;;;;;;;;;;;;;12.75;55.99;98322.91;3313138;29;19929;-76
2021/09/04 00:58:46;;;;;;;;;;;;;;;12.76;55.84;98321.88;3312050;29;19936;-76
2021/09/04 01:00:26;;;;;;;;;;;;;;;12.74;55.82;98322.09;3312961;29;20377;-76
2021/09/04 01:02:07;;;;;;;;;;;;;;;12.70;55.92;98320.13;3313343;29;19929;-76
2021/09/04 01:03:48;;;;;;;;;;;;;;;12.70;56.03;98323.66;3312922;29;19936;-75
2021/09/04 01:05:29;;;;;;;;;;;;;;;12.72;55.98;98326.06;3312967;29;20394;-76
2021/09/04 01:07:12;;;;;;;;;;;;;;;12.72;55.86;98332.22;3312816;29;19929;-76
2021/09/04 01:08:52;;;;;;;;;;;;;;;12.66;55.93;98327.84;3313149;29;20274;-76
2021/09/04 01:10:35;;;;;;;;;;;;;;;12.61;55.94;98330.44;3312999;29;20321;-75
2021/09/04 01:12:16;;;;;;;;;;;;;;;12.59;56.12;98327.97;3324458;29;20325;-76
2021/09/04 01:13:57;;;;;;;;;;;;;;;12.59;56.04;98333.31;3315253;29;20027;-75
2021/09/04 01:15:37;;;;;;;;;;;;;;;12.63;56.15;98328.34;3312895;29;19936;-76
2021/09/04 01:17:18;;;;;;;;;;;;;;;12.66;56.05;98333.19;3312958;29;20393;-75
2021/09/04 01:18:58;;;;;;;;;;;;;;;12.66;56.07;98339.34;3324689;29;19929;-75
2021/09/04 01:20:39;;;;;;;;;;;;;;;12.68;55.99;98335.63;3315202;29;20457;-75
2021/09/04 01:22:19;;;;;;;;;;;;;;;12.70;55.85;98339.69;3312843;29;20425;-75
2021/09/04 01:24:00;;;;;;;;;;;;;;;12.71;55.73;98335.16;3312693;29;20412;-75
2021/09/04 01:25:43;;;;;;;;;;;;;;;12.70;55.89;98344.19;3311849;29;20224;-75
2021/09/04 01:27:23;;;;;;;;;;;;;;;12.70;55.81;98347.72;3324349;29;19929;-76
2021/09/04 01:29:04;;;;;;;;;;;;;;;12.71;55.90;98345.84;3324471;29;19928;-76
2021/09/04 01:30:45;;;;;;;;;;;;;;;12.72;55.80;98347.44;3315116;29;19929;-75
2021/09/04 01:32:26;;;;;;;;;;;;;;;12.76;55.70;98349.41;3312840;29;19982;-76
2021/09/04 01:34:06;;;;;;;;;;;;;;;12.76;55.64;98348.59;3312774;29;21199;-75
2021/09/04 01:35:47;;;;;;;;;;;;;;;12.76;55.78;98349.41;3312732;29;20035;-75
2021/09/04 01:37:27;;;;;;;;;;;;;;;12.76;55.74;98352.06;3313000;29;19933;-75
2021/09/04 01:39:08;;;;;;;;;;;;;;;12.75;55.64;98345.13;3312577;29;20011;-75
2021/09/04 01:40:49;;;;;;;;;;;;;;;12.76;55.82;98348.59;3312757;29;19935;-75
2021/09/04 01:42:29;;;;;;;;;;;;;;;12.79;55.67;98348.91;3312666;29;20385;-75
2021/09/04 01:44:10;;;;;;;;;;;;;;;12.81;55.86;98351.34;3312547;29;19929;-76
2021/09/04 01:45:50;;;;;;;;;;;;;;;12.84;55.66;98356.22;3312656;29;20365;-75
2021/09/04 01:47:31;;;;;;;;;;;;;;;12.86;55.72;98351.44;3312641;29;19975;-75
2021/09/04 01:49:11;;;;;;;;;;;;;;;12.91;55.53;98353.38;3312488;29;20090;-75
2021/09/04 01:50:52;;;;;;;;;;;;;;;12.96;55.41;98358.78;3311786;29;20020;-75
2021/09/04 01:52:32;;;;;;;;;;;;;;;12.96;55.29;98348.94;3312453;29;20035;-75
2021/09/04 01:54:13;;;;;;;;;;;;;;;12.96;55.29;98345.44;3312602;29;19929;-75
2021/09/04 01:55:53;;;;;;;;;;;;;;;12.99;55.09;98364.50;3312594;29;19985;-75
2021/09/04 01:57:34;;;;;;;;;;;;;;;12.95;55.23;98354.50;3312401;29;20020;-75
2021/09/04 01:59:14;;;;;;;;;;;;;;;12.92;55.35;98355.81;3312603;29;19985;-75
2021/09/04 02:00:55;;;;;;;;;;;;;;;12.91;55.19;98364.91;3312680;29;19977;-75
2021/09/04 02:02:36;;;;;;;;;;;;;;;12.89;55.17;98358.97;3312752;29;19997;-75
2021/09/04 02:04:16;;;;;;;;;;;;;;;12.84;55.22;98358.88;3312815;29;19958;-75
2021/09/04 02:05:57;;;;;;;;;;;;;;;12.81;55.37;98356.69;3312519;29;19933;-75
2021/09/04 02:07:37;;;;;;;;;;;;;;;12.77;55.32;98359.03;3312421;29;19972;-75
2021/09/04 02:09:18;;;;;;;;;;;;;;;12.73;55.43;98363.25;3312528;29;19936;-75
2021/09/04 02:10:59;;;;;;;;;;;;;;;12.78;55.47;98351.84;3312722;29;20301;-75
2021/09/04 02:12:39;;;;;;;;;;;;;;;12.78;55.51;98357.19;3312548;29;20401;-76
2021/09/04 02:14:19;;;;;;;;;;;;;;;12.81;55.30;98356.69;3312484;29;20424;-76
2021/09/04 02:16:00;;;;;;;;;;;;;;;12.80;55.28;98355.91;3312433;29;20399;-75
2021/09/04 02:17:41;;;;;;;;;;;;;;;12.80;55.65;98365.75;3312576;29;19929;-75
2021/09/04 02:19:22;;;;;;;;;;;;;;;12.85;55.32;98368.53;3312647;29;19929;-75
2021/09/04 02:21:04;;;;;;;;;;;;;;;12.89;55.23;98369.66;3312877;29;19993;-76
2021/09/04 02:22:46;;;;;;;;;;;;;;;12.93;54.86;98360.09;3314666;29;19929;-76
2021/09/04 02:24:29;;;;;;;;;;;;;;;12.91;55.04;98378.28;3314673;29;19936;-76
2021/09/04 02:26:10;;;;;;;;;;;;;;;12.88;55.07;98374.22;3326302;29;19935;-74
2021/09/04 02:27:51;;;;;;;;;;;;;;;12.78;54.93;98374.03;3317083;29;19929;-74
2021/09/04 02:29:33;;;;;;;;;;;;;;;12.67;54.93;98372.22;3315053;29;19933;-75
2021/09/04 02:31:19;;;;;;;;;;;;;;;12.61;55.26;98373.19;3313850;29;19929;-77
2021/09/04 02:32:59;;;;;;;;;;;;;;;12.59;55.49;98375.28;3314629;29;19959;-74
2021/09/04 02:34:40;;;;;;;;;;;;;;;12.60;55.48;98377.72;3314612;29;19932;-75
2021/09/04 02:36:22;;;;;;;;;;;;;;;12.63;55.35;98379.91;3314940;29;20051;-74
2021/09/04 02:38:04;;;;;;;;;;;;;;;12.64;55.40;98386.88;3314793;29;20428;-75
2021/09/04 02:39:45;;;;;;;;;;;;;;;12.68;55.38;98376.53;3314672;29;20027;-74
2021/09/04 02:41:26;;;;;;;;;;;;;;;12.69;55.22;98382.69;3313861;29;20016;-75
2021/09/04 02:43:08;;;;;;;;;;;;;;;12.66;55.42;98384.78;3314431;29;19929;-75
2021/09/04 02:44:49;;;;;;;;;;;;;;;12.66;55.63;98387.47;3314617;29;19929;-75
2021/09/04 02:46:30;;;;;;;;;;;;;;;12.66;55.68;98382.09;3314674;29;19936;-76
2021/09/04 02:48:10;;;;;;;;;;;;;;;12.62;55.76;98390.84;3314823;29;19940;-75
2021/09/04 02:49:52;;;;;;;;;;;;;;;12.58;55.92;98398.53;3314568;29;20308;-76
2021/09/04 02:51:33;;;;;;;;;;;;;;;12.61;56.15;98395.38;3328162;29;19983;-74
2021/09/04 02:53:15;;;;;;;;;;;;;;;12.64;56.11;98389.56;3313514;29;19933;-75
2021/09/04 02:54:55;;;;;;;;;;;;;;;12.64;55.90;98400.25;3314482;29;20003;-76
2021/09/04 02:56:36;;;;;;;;;;;;;;;12.58;55.99;98387.84;3314661;29;19936;-74
2021/09/04 02:58:17;;;;;;;;;;;;;;;12.51;56.01;98395.19;3314381;29;19929;-75
2021/09/04 02:59:58;;;;;;;;;;;;;;;12.46;56.11;98389.75;3326137;29;19960;-75
2021/09/04 03:01:39;;;;;;;;;;;;;;;12.40;56.11;98393.38;3316783;29;19929;-75
2021/09/04 03:03:20;;;;;;;;;;;;;;;12.33;56.11;98392.72;3313641;29;19968;-74
2021/09/04 03:05:03;;;;;;;;;;;;;;;12.26;56.21;98395.50;3314485;29;19929;-74
2021/09/04 03:06:43;;;;;;;;;;;;;;;12.25;56.39;98393.09;3314603;29;19935;-74
2021/09/04 03:08:24;;;;;;;;;;;;;;;12.29;56.48;98402.25;3313578;29;20036;-74
2021/09/04 03:10:05;;;;;;;;;;;;;;;12.32;56.33;98386.56;3323154;29;20312;-75
2021/09/04 03:11:46;;;;;;;;;;;;;;;12.41;56.27;98400.34;3316705;29;19929;-74
2021/09/04 03:13:26;;;;;;;;;;;;;;;12.51;55.89;98395.19;3313205;29;19940;-75
2021/09/04 03:15:08;;;;;;;;;;;;;;;12.56;55.93;98397.97;3314483;29;19968;-74
2021/09/04 03:16:48;;;;;;;;;;;;;;;12.60;55.79;98403.66;3314342;29;19928;-74
2021/09/04 03:18:29;;;;;;;;;;;;;;;12.59;55.63;98402.81;3314354;29;19936;-74
2021/09/04 03:20:09;;;;;;;;;;;;;;;12.58;55.79;98403.88;3314326;29;19977;-75
2021/09/04 03:21:51;;;;;;;;;;;;;;;12.57;55.53;98409.47;3314353;29;19929;-74
2021/09/04 03:23:32;;;;;;;;;;;;;;;12.52;55.57;98398.66;3314387;29;19989;-74
2021/09/04 03:25:12;;;;;;;;;;;;;;;12.48;55.82;98406.38;3312829;29;19929;-75
2021/09/04 03:26:53;;;;;;;;;;;;;;;12.45;55.83;98406.84;3310993;29;19977;-75
2021/09/04 03:28:33;;;;;;;;;;;;;;;12.45;55.79;98406.84;3314160;29;19929;-75
2021/09/04 03:30:15;;;;;;;;;;;;;;;12.38;55.75;98412.31;3314197;29;19945;-75
2021/09/04 03:31:55;;;;;;;;;;;;;;;12.35;55.88;98414.66;3313492;29;19929;-75
2021/09/04 03:33:37;;;;;;;;;;;;;;;12.40;55.99;98417.44;3313981;29;19929;-75
2021/09/04 03:35:19;;;;;;;;;;;;;;;12.48;55.95;98417.06;3314301;29;20025;-75
2021/09/04 03:37:00;;;;;;;;;;;;;;;12.52;55.69;98428.91;3314080;29;19929;-75
2021/09/04 03:38:40;;;;;;;;;;;;;;;12.53;55.71;98424.38;3314062;29;20024;-75
2021/09/04 03:40:21;;;;;;;;;;;;;;;12.52;55.69;98426.22;3325615;29;20420;-75
2021/09/04 03:42:02;;;;;;;;;;;;;;;12.53;55.71;98429.72;3316220;29;19933;-75
2021/09/04 03:43:43;;;;;;;;;;;;;;;12.53;55.65;98425.16;3315378;29;19929;-75
2021/09/04 03:45:24;;;;;;;;;;;;;;;12.52;55.66;98434.25;3314040;29;20032;-74
2021/09/04 03:47:05;;;;;;;;;;;;;;;12.52;55.62;98431.56;3314109;29;20351;-75
2021/09/04 03:48:46;;;;;;;;;;;;;;;12.51;55.57;98431.81;3313904;29;19931;-76
2021/09/04 03:50:28;;;;;;;;;;;;;;;12.51;55.75;98437.94;3313014;29;20031;-76
2021/09/04 03:52:09;;;;;;;;;;;;;;;12.50;55.58;98425.66;3313633;29;19929;-74
2021/09/04 03:53:50;;;;;;;;;;;;;;;12.53;55.83;98445.75;3325359;29;19976;-75
2021/09/04 03:55:32;;;;;;;;;;;;;;;12.53;55.80;98440.41;3325436;29;19929;-74
2021/09/04 03:57:12;;;;;;;;;;;;;;;12.51;55.66;98440.63;3316026;29;19929;-74
2021/09/04 03:58:53;;;;;;;;;;;;;;;12.48;55.85;98443.78;3313793;29;19936;-75
2021/09/04 04:00:35;;;;;;;;;;;;;;;12.48;55.83;98443.78;3313825;29;20086;-75
2021/09/04 04:02:15;;;;;;;;;;;;;;;12.49;55.84;98445.38;3313696;29;19928;-75
2021/09/04 04:03:57;;;;;;;;;;;;;;;12.51;55.93;98447.84;3313797;29;19929;-75
2021/09/04 04:05:37;;;;;;;;;;;;;;;12.54;55.87;98448.16;3313967;29;19936;-75
2021/09/04 04:07:18;;;;;;;;;;;;;;;12.56;55.84;98459.44;3314045;29;20347;-76
2021/09/04 04:08:59;;;;;;;;;;;;;;;12.57;55.94;98454.91;3313650;29;19929;-75
2021/09/04 04:10:40;;;;;;;;;;;;;;;12.60;55.95;98457.91;3313549;29;19952;-76
2021/09/04 04:12:21;;;;;;;;;;;;;;;12.65;55.85;98458.03;3313758;29;19937;-76
2021/09/04 04:14:03;;;;;;;;;;;;;;;12.71;55.80;98448.22;3313789;29;19929;-75
2021/09/04 04:15:44;;;;;;;;;;;;;;;12.70;55.58;98457.31;3313755;29;19929;-76
2021/09/04 04:17:25;;;;;;;;;;;;;;;12.65;55.82;98459.88;3313560;29;19945;-76
2021/09/04 04:19:07;;;;;;;;;;;;;;;12.64;55.94;98463.59;3313732;29;20019;-75
2021/09/04 04:20:48;;;;;;;;;;;;;;;12.67;56.04;98452.41;3314013;29;19936;-75
2021/09/04 04:22:29;;;;;;;;;;;;;;;12.66;55.94;98466.84;3325534;29;19936;-76
2021/09/04 04:24:10;;;;;;;;;;;;;;;12.64;55.88;98467.06;3315610;29;20312;-75
2021/09/04 04:25:52;;;;;;;;;;;;;;;12.62;55.92;98465.69;3313538;29;19929;-77
2021/09/04 04:27:33;;;;;;;;;;;;;;;12.55;56.02;98462.34;3313424;29;19921;-75
2021/09/04 04:29:16;;;;;;;;;;;;;;;12.52;56.20;98469.00;3313344;29;19929;-76
2021/09/04 04:31:00;;;;;;;;;;;;;;;12.56;56.23;98467.44;3313392;29;19929;-76
2021/09/04 04:32:41;;;;;;;;;;;;;;;12.68;56.33;98474.63;3313387;29;19929;-74
2021/09/04 04:34:22;;;;;;;;;;;;;;;12.74;56.11;98479.03;3312705;29;19929;-76
2021/09/04 04:36:03;;;;;;;;;;;;;;;12.78;55.98;98482.84;3313197;29;19980;-76
2021/09/04 04:37:44;;;;;;;;;;;;;;;12.78;56.04;98480.19;3312536;29;20399;-77
2021/09/04 04:39:27;;;;;;;;;;;;;;;12.75;56.05;98485.97;3313764;29;20369;-75
2021/09/04 04:41:08;;;;;;;;;;;;;;;12.78;56.17;98489.00;3313210;29;20024;-77
2021/09/04 04:42:49;;;;;;;;;;;;;;;12.83;56.18;98482.91;3313392;29;19936;-76
2021/09/04 04:44:30;;;;;;;;;;;;;;;12.81;56.24;98491.19;3312822;29;19951;-76
2021/09/04 04:46:11;;;;;;;;;;;;;;;12.77;56.43;98495.38;3313235;29;20295;-76
2021/09/04 04:47:53;;;;;;;;;;;;;;;12.74;56.61;98489.72;3313258;29;20283;-75
2021/09/04 04:49:33;;;;;;;;;;;;;;;12.71;56.57;98495.53;3313112;29;19969;-76
2021/09/04 04:51:14;;;;;;;;;;;;;;;12.64;56.83;98496.47;3313170;29;19975;-75
2021/09/04 04:52:56;;;;;;;;;;;;;;;12.61;56.99;98498.81;3324833;29;20072;-76
2021/09/04 04:54:38;;;;;;;;;;;;;;;12.64;56.99;98499.16;3315095;29;19936;-77
2021/09/04 04:56:19;;;;;;;;;;;;;;;12.64;57.05;98501.00;3313149;29;19978;-76
2021/09/04 04:58:00;;;;;;;;;;;;;;;12.64;57.02;98507.16;3324790;29;19936;-76
2021/09/04 04:59:43;;;;;;;;;;;;;;;12.65;57.08;98506.13;3315015;29;19929;-76
2021/09/04 05:01:25;;;;;;;;;;;;;;;12.66;57.04;98510.41;3312034;29;19929;-76
2021/09/04 05:03:06;;;;;;;;;;;;;;;12.72;57.08;98508.66;3312748;29;20031;-76
2021/09/04 05:04:47;;;;;;;;;;;;;;;12.69;57.17;98514.47;3312864;29;19986;-77
2021/09/04 05:06:28;;;;;;;;;;;;;;;12.68;57.15;98507.53;3313077;29;19972;-76
2021/09/04 05:08:10;;;;;;;;;;;;;;;12.66;57.26;98510.41;3313275;29;20412;-77
2021/09/04 05:09:50;;;;;;;;;;;;;;;12.63;57.30;98512.75;3312568;29;20016;-76
2021/09/04 05:11:32;;;;;;;;;;;;;;;12.58;57.51;98508.13;3310705;29;20035;-76
2021/09/04 05:13:13;;;;;;;;;;;;;;;12.55;57.60;98518.50;3313483;29;19929;-77
2021/09/04 05:14:55;;;;;;;;;;;;;;;12.55;57.50;98518.50;3312936;29;19935;-76
2021/09/04 05:16:36;;;;;;;;;;;;;;;12.59;57.53;98514.28;3313392;29;19929;-76
2021/09/04 05:18:18;;;;;;;;;;;;;;;12.64;57.40;98517.84;3313275;29;19929;-77
2021/09/04 05:20:00;;;;;;;;;;;;;;;12.69;57.34;98519.03;3324611;29;19928;-76
2021/09/04 05:21:41;;;;;;;;;;;;;;;12.69;57.38;98513.69;3315016;29;20437;-78
2021/09/04 05:23:22;;;;;;;;;;;;;;;12.66;57.44;98518.44;3312990;29;19986;-77
2021/09/04 05:25:04;;;;;;;;;;;;;;;12.64;57.50;98512.50;3311721;29;19929;-75
2021/09/04 05:26:46;;;;;;;;;;;;;;;12.67;57.44;98516.56;3312485;29;20311;-76
2021/09/04 05:28:27;;;;;;;;;;;;;;;12.74;57.41;98524.47;3311951;29;19928;-76
2021/09/04 05:30:07;;;;;;;;;;;;;;;12.76;57.52;98520.50;3309178;29;19929;-75
2021/09/04 05:31:48;;;;;;;;;;;;;;;12.77;57.30;98524.00;3312596;29;19985;-76
2021/09/04 05:33:28;;;;;;;;;;;;;;;12.80;57.30;98526.19;3312844;29;20019;-75
2021/09/04 05:35:09;;;;;;;;;;;;;;;12.83;57.25;98531.88;3312848;29;20325;-75
2021/09/04 05:36:50;;;;;;;;;;;;;;;12.92;57.14;98534.97;3313033;29;19929;-75
2021/09/04 05:38:30;;;;;;;;;;;;;;;12.97;57.01;98532.41;3312720;29;19929;-76
2021/09/04 05:40:11;;;;;;;;;;;;;;;12.99;56.86;98534.84;3312699;29;19929;-76
2021/09/04 05:41:51;;;;;;;;;;;;;;;13.00;56.97;98539.16;3312739;29;19929;-75
2021/09/04 05:43:32;;;;;;;;;;;;;;;12.93;57.04;98541.94;3312575;29;20283;-75
2021/09/04 05:45:12;;;;;;;;;;;;;;;12.88;57.31;98542.69;3312487;29;19930;-75
2021/09/04 05:46:53;;;;;;;;;;;;;;;12.90;57.25;98541.63;3312544;29;19936;-75
2021/09/04 05:48:33;;;;;;;;;;;;;;;12.87;57.43;98548.25;3312734;29;20029;-76
2021/09/04 05:50:14;;;;;;;;;;;;;;;12.86;57.39;98546.66;3312557;29;19986;-75
2021/09/04 05:51:54;;;;;;;;;;;;;;;12.85;57.40;98547.69;3324178;29;20008;-77
2021/09/04 05:53:36;;;;;;;;;;;;;;;12.86;57.54;98543.97;3315116;29;19929;-76
2021/09/04 05:55:17;;;;;;;;;;;;;;;12.87;57.52;98548.25;3311775;29;19948;-75
2021/09/04 05:56:57;;;;;;;;;;;;;;;12.89;57.64;98548.84;3312396;29;19929;-77
2021/09/04 05:58:39;;;;;;;;;;;;;;;12.96;57.55;98559.38;3312597;29;19932;-76
2021/09/04 06:00:20;;;;;;;;;;;;;;;12.99;57.52;98553.56;3311443;29;19935;-77
2021/09/04 06:02:01;;;;;;;;;;;;;;;13.04;57.52;98551.81;3312615;29;19936;-76
2021/09/04 06:03:41;;;;;;;;;;;;;;;13.14;57.39;98561.06;3312239;29;20306;-75
2021/09/04 06:05:22;;;;;;;;;;;;;;;13.22;57.58;98560.69;3324014;29;19929;-75
2021/09/04 06:07:03;;;;;;;;;;;;;;;13.29;57.57;98572.91;3314856;29;19968;-77
2021/09/04 06:08:43;;;;;;;;;;;;;;;13.40;57.29;98571.22;3312482;29;19933;-76
2021/09/04 06:10:24;;;;;;;;;;;;;;;13.58;57.18;98566.69;3312769;29;20386;-76
2021/09/04 06:12:04;;;;;;;;;;;;;;;13.75;56.83;98567.53;3312563;29;20409;-76
2021/09/04 06:13:45;;;;;;;;;;;;;;;13.90;56.67;98569.66;3312130;29;19930;-76
2021/09/04 06:15:26;;;;;;;;;;;;;;;14.04;56.19;98570.94;3312439;29;19956;-76
2021/09/04 06:17:06;;;;;;;;;;;;;;;14.12;56.11;98575.06;3311468;29;19978;-76
2021/09/04 06:18:47;;;;;;;;;;;;;;;14.19;55.97;98576.53;3312563;29;19929;-77
2021/09/04 06:20:27;;;;;;;;;;;;;;;14.28;55.64;98573.44;3312561;29;19929;-76
2021/09/04 06:22:08;;;;;;;;;;;;;;;14.35;55.44;98566.84;3312315;29;19929;-76
2021/09/04 06:23:48;;;;;;;;;;;;;;;14.41;55.34;98562.38;3312339;29;20028;-76
2021/09/04 06:25:29;;;;;;;;;;;;;;;14.50;55.37;98568.91;3312201;29;20393;-76
2021/09/04 06:27:09;;;;;;;;;;;;;;;14.57;55.05;98556.19;3312436;29;19929;-76
2021/09/04 06:28:50;;;;;;;;;;;;;;;14.67;54.61;98565.41;3313919;29;19936;-76
2021/09/04 06:30:30;;;;;;;;;;;;;;;14.72;54.54;98560.13;3312726;29;19929;-75
2021/09/04 06:32:11;;;;;;;;;;;;;;;14.70;54.62;98568.41;3312302;29;19932;-76
2021/09/04 06:33:51;;;;;;;;;;;;;;;14.68;54.51;98567.84;3312255;29;19929;-75
2021/09/04 06:35:32;;;;;;;;;;;;;;;14.66;54.28;98572.63;3312365;29;19974;-76
2021/09/04 06:37:12;;;;;;;;;;;;;;;14.70;54.40;98565.72;3312362;29;19935;-76
2021/09/04 06:38:56;;;;;;;;;;;;;;;14.97;54.01;98567.66;3312258;29;19936;-76
2021/09/04 06:40:36;;;;;;;;;;;;;;;15.33;53.32;98566.16;3324107;29;20484;-77
2021/09/04 06:42:17;;;;;;;;;;;;;;;15.76;52.47;98567.13;3314527;29;19976;-76
2021/09/04 06:43:57;;;;;;;;;;;;;;;16.20;51.81;98571.50;3311294;29;19936;-76
2021/09/04 06:45:38;;;;;;;;;;;;;;;16.56;51.14;98584.09;3312144;29;19929;-76
2021/09/04 06:47:18;;;;;;;;;;;;;;;16.90;50.52;98569.47;3312249;29;19985;-76
2021/09/04 06:48:59;;;;;;;;;;;;;;;17.28;49.56;98570.13;3312280;29;19933;-76
2021/09/04 06:50:41;;;;;;;;;;;;;;;17.42;49.49;98580.16;3312238;29;19929;-77
2021/09/04 06:52:21;;;;;;;;;;;;;;;17.43;49.20;98565.59;3311183;29;19929;-77
2021/09/04 06:54:02;;;;;;;;;;;;;;;17.41;48.84;98567.72;3312016;29;19972;-77
2021/09/04 06:55:42;;;;;;;;;;;;;;;17.30;49.17;98568.78;3312039;29;20059;-77
2021/09/04 06:57:23;;;;;;;;;;;;;;;17.29;48.90;98560.97;3312230;29;19929;-77
2021/09/04 06:59:03;;;;;;;;;;;;;;;17.37;49.03;98569.34;3312386;29;20032;-77
2021/09/04 07:00:44;;;;;;;;;;;;;;;17.42;48.40;98572.06;3312200;29;19929;-76
2021/09/04 07:02:24;;;;;;;;;;;;;;;17.40;48.35;98579.59;3312666;29;19941;-77
2021/09/04 07:04:05;;;;;;;;;;;;;;;17.33;47.55;98572.84;3312519;29;19929;-76
2021/09/04 07:05:45;;;;;;;;;;;;;;;17.16;48.01;98576.56;3311195;29;19936;-77
2021/09/04 07:07:26;;;;;;;;;;;;;;;16.98;48.38;98582.41;3314046;29;19952;-77
2021/09/04 07:09:06;;;;;;;;;;;;;;;16.88;48.77;98577.00;3315318;29;20413;-76
2021/09/04 07:10:47;;;;;;;;;;;;;;;16.95;48.59;98580.25;3314688;29;19936;-76
2021/09/04 07:12:28;;;;;;;;;;;;;;;17.12;48.80;98577.38;3326231;29;19990;-77
2021/09/04 07:14:08;;;;;;;;;;;;;;;17.34;48.20;98580.63;3313447;29;19929;-76
2021/09/04 07:15:52;;;;;;;;;;;;;;;17.66;47.80;98582.31;3314296;29;19936;-78
2021/09/04 07:17:32;;;;;;;;;;;;;;;18.03;47.11;98581.28;3315023;29;19929;-77
2021/09/04 07:19:13;;;;;;;;;;;;;;;18.28;46.65;98578.56;3327080;29;20112;-78
2021/09/04 07:20:54;;;;;;;;;;;;;;;18.40;46.70;98580.16;3317398;29;20023;-77
2021/09/04 07:22:34;;;;;;;;;;;;;;;18.49;46.27;98581.22;3314857;29;19929;-76
2021/09/04 07:24:15;;;;;;;;;;;;;;;18.51;46.16;98576.38;3313824;29;20310;-78
2021/09/04 07:25:55;;;;;;;;;;;;;;;18.47;46.00;98584.19;3314568;29;20040;-76
2021/09/04 07:27:36;;;;;;;;;;;;;;;18.55;46.36;98582.00;3314651;29;20306;-78
2021/09/04 07:29:16;;;;;;;;;;;;;;;18.71;45.33;98580.88;3314843;29;19959;-78
2021/09/04 07:30:59;;;;;;;;;;;;;;;18.91;45.37;98586.22;3315179;29;19951;-78
2021/09/04 07:32:39;;;;;;;;;;;;;;;19.04;45.42;98584.81;3315169;29;19929;-78
2021/09/04 07:34:20;;;;;;;;;;;;;;;19.03;44.72;98591.31;3314842;29;20000;-78
2021/09/04 07:36:03;;;;;;;;;;;;;;;18.95;44.30;98589.22;3314414;29;19929;-77
2021/09/04 07:37:44;;;;;;;;;;;;;;;18.86;44.33;98585.44;3314304;29;20353;-77
2021/09/04 07:39:25;;;;;;;;;;;;;;;18.83;44.51;98588.69;3314076;29;19935;-76
2021/09/04 07:41:05;;;;;;;;;;;;;;;18.81;44.37;98593.56;3314069;29;19929;-77
2021/09/04 07:42:46;;;;;;;;;;;;;;;18.73;44.56;98586.81;3325583;29;19935;-77
2021/09/04 07:44:26;;;;;;;;;;;;;;;18.63;44.31;98593.03;3316066;29;19981;-75
2021/09/04 07:46:07;;;;;;;;;;;;;;;18.52;44.73;98589.56;3314357;29;19936;-76
2021/09/04 07:47:48;;;;;;;;;;;;;;;18.41;43.88;98593.38;3314227;29;19951;-76
2021/09/04 07:49:28;;;;;;;;;;;;;;;18.27;44.69;98609.28;3313315;29;19960;-76
2021/09/04 07:51:09;;;;;;;;;;;;;;;18.03;45.00;98592.88;3313745;29;19978;-76
2021/09/04 07:52:51;;;;;;;;;;;;;;;17.82;45.08;98604.72;3314026;29;19929;-77
2021/09/04 07:54:31;;;;;;;;;;;;;;;17.58;45.13;98602.53;3314007;29;19921;-76
2021/09/04 07:56:12;;;;;;;;;;;;;;;17.40;45.61;98600.34;3313854;29;19936;-77
2021/09/04 07:57:52;;;;;;;;;;;;;;;17.29;45.78;98604.06;3313840;29;20052;-76
2021/09/04 07:59:33;;;;;;;;;;;;;;;17.42;46.23;98608.94;3315990;29;20024;-76
2021/09/04 08:01:13;;;;;;;;;;;;;;;17.76;45.62;98603.91;3314589;29;19921;-76
2021/09/04 08:02:54;;;;;;;;;;;;;;;18.22;45.57;98609.28;3314112;29;19936;-76
2021/09/04 08:04:35;;;;;;;;;;;;;;;18.73;44.67;98603.00;3313813;29;19933;-76
2021/09/04 08:06:15;;;;;;;;;;;;;;;19.12;44.15;98608.56;3312904;29;19929;-76
2021/09/04 08:07:56;;;;;;;;;;;;;;;19.39;43.57;98608.16;3322830;29;19929;-77
2021/09/04 08:09:36;;;;;;;;;;;;;;;19.71;43.20;98606.09;3316260;29;19990;-77
2021/09/04 08:11:18;;;;;;;;;;;;;;;20.02;42.33;98604.78;3313744;29;20577;-77
2021/09/04 08:12:59;;;;;;;;;;;;;;;20.35;42.41;98610.44;3314081;29;19936;-76
2021/09/04 08:14:39;;;;;;;;;;;;;;;20.71;41.91;98615.53;3313633;29;20024;-76
2021/09/04 08:16:20;;;;;;;;;;;;;;;21.06;41.50;98611.56;3313622;29;20006;-76
2021/09/04 08:18:00;;;;;;;;;;;;;;;21.26;40.94;98604.31;3313153;29;19929;-77
2021/09/04 08:19:41;;;;;;;;;;;;;;;21.22;40.77;98604.09;3313512;29;20020;-77
2021/09/04 08:21:22;;;;;;;;;;;;;;;21.08;40.88;98608.59;3325240;29;19964;-76
2021/09/04 08:23:06;;;;;;;;;;;;;;;20.79;41.12;98614.88;3315777;29;19929;-77
2021/09/04 08:24:47;;;;;;;;;;;;;;;20.50;40.76;98620.31;3313040;29;20420;-76
2021/09/04 08:26:28;;;;;;;;;;;;;;;20.21;42.06;98623.00;3312439;29;19933;-77
2021/09/04 08:28:08;;;;;;;;;;;;;;;20.12;42.15;98613.91;3313387;29;19933;-76
2021/09/04 08:29:49;;;;;;;;;;;;;;;20.23;42.06;98607.31;3313640;29;19935;-76
2021/09/04 08:31:30;;;;;;;;;;;;;;;20.51;41.56;98615.72;3313235;29;19929;-77
2021/09/04 08:33:10;;;;;;;;;;;;;;;20.75;41.72;98615.75;3324957;29;20323;-77
2021/09/04 08:34:51;;;;;;;;;;;;;;;21.04;41.03;98613.78;3316269;29;19975;-77
2021/09/04 08:36:31;;;;;;;;;;;;;;;21.38;40.97;98612.84;3314370;29;20016;-77
2021/09/04 08:38:12;;;;;;;;;;;;;;;21.69;40.25;98618.63;3313350;29;19952;-76
2021/09/04 08:39:52;;;;;;;;;;;;;;;22.00;39.48;98618.16;3313708;29;19986;-77
2021/09/04 08:41:33;;;;;;;;;;;;;;;22.30;38.76;98606.00;3313691;29;20081;-77
2021/09/04 08:43:13;;;;;;;;;;;;;;;22.52;38.37;98616.22;3313725;29;19935;-77
2021/09/04 08:44:54;;;;;;;;;;;;;;;22.69;38.44;98612.94;3313381;29;19929;-77
2021/09/04 08:46:36;;;;;;;;;;;;;;;22.91;37.72;98625.78;3313859;29;19929;-77